Time;durP1;ratioP1;P1;durP2;ratioP2;P2;SDS_P1;SDS_P2;PMS_P1;PMS_P2;Temp;Humidity;BMP_temperature;BMP_pressure;BME280_temperature;BME280_humidity;BME280_pressure;Samples;Min_cycle;Max_cycle;Signal;HPM_P1;HPM_P2
2022/06/03 00:01:04;;;;;;;10.05;5.65;;;10.00;99.90;;;;;;4939573;29;20134;-43
2022/06/03 00:03:59;;;;;;;8.13;5.53;;;10.00;99.90;;;;;;4924555;29;20066;-43
2022/06/03 00:07:07;;;;;;;8.00;5.78;;;10.00;99.90;;;;;;4886250;29;20101;-44
2022/06/03 00:09:58;;;;;;;7.20;5.90;;;10.00;99.90;;;;;;4903113;29;20078;-43
2022/06/03 00:12:50;;;;;;;6.90;5.80;;;10.00;99.90;;;;;;4899702;29;20474;-43
2022/06/03 00:15:24;;;;;;;6.60;5.57;;;10.00;99.90;;;;;;4884787;29;20059;-43
2022/06/03 00:18:11;;;;;;;9.15;6.15;;;10.00;99.90;;;;;;4902789;29;20056;-43
2022/06/03 00:21:02;;;;;;;9.82;6.22;;;10.00;99.90;;;;;;4902680;29;20048;-44
2022/06/03 00:23:45;;;;;;;8.02;6.28;;;9.90;99.90;;;;;;4898273;29;20096;-43
2022/06/03 00:26:39;;;;;;;9.93;6.65;;;9.90;99.90;;;;;;4897054;29;20063;-43
2022/06/03 00:29:24;;;;;;;8.73;6.53;;;9.90;99.90;;;;;;4919823;28;20406;-43
2022/06/03 00:32:20;;;;;;;8.90;7.22;;;9.80;99.90;;;;;;4959579;28;20063;-44
2022/06/03 00:34:57;;;;;;;11.82;7.05;;;9.80;99.90;;;;;;4958807;28;20062;-43
2022/06/03 00:37:48;;;;;;;10.65;6.55;;;9.80;99.90;;;;;;4952044;28;20062;-42
2022/06/03 00:40:27;;;;;;;11.05;7.00;;;9.80;99.90;;;;;;4921962;28;20074;-43
2022/06/03 00:43:25;;;;;;;10.55;7.32;;;9.80;99.90;;;;;;4962957;28;20184;-43
2022/06/03 00:45:54;;;;;;;9.77;6.90;;;9.70;99.90;;;;;;5015244;28;20050;-42
2022/06/03 00:48:22;;;;;;;9.40;7.05;;;9.70;99.90;;;;;;5021317;28;20057;-44
2022/06/03 00:51:24;;;;;;;8.73;6.55;;;9.70;99.90;;;;;;5021380;28;20061;-43
2022/06/03 00:53:50;;;;;;;13.18;7.38;;;9.70;99.90;;;;;;5028411;28;20135;-44
2022/06/03 00:56:43;;;;;;;8.45;7.20;;;9.70;99.90;;;;;;5025441;28;20037;-49
2022/06/03 00:59:39;;;;;;;9.18;7.38;;;9.70;99.90;;;;;;5025515;28;20068;-43
2022/06/03 01:02:31;;;;;;;10.10;7.75;;;9.70;99.90;;;;;;5024555;28;20057;-43
2022/06/03 01:05:00;;;;;;;8.00;7.20;;;9.60;99.90;;;;;;5019179;28;20050;-43
2022/06/03 01:07:44;;;;;;;9.10;8.20;;;9.70;99.90;;;;;;5023393;28;20135;-43
2022/06/03 01:10:43;;;;;;;11.32;7.80;;;9.60;99.90;;;;;;5021609;28;20045;-42
2022/06/03 01:13:35;;;;;;;10.38;8.00;;;9.60;99.90;;;;;;4943840;29;20055;-43
2022/06/03 01:16:18;;;;;;;9.73;7.85;;;9.50;99.90;;;;;;4943374;29;20130;-43
2022/06/03 01:19:25;;;;;;;10.77;8.43;;;9.50;99.90;;;;;;4942979;29;20067;-42
2022/06/03 01:21:57;;;;;;;9.52;8.45;;;9.50;99.90;;;;;;4942149;29;20717;-42
2022/06/03 01:24:36;;;;;;;9.85;8.80;;;9.50;99.90;;;;;;4936820;29;20509;-42
2022/06/03 01:27:17;;;;;;;10.55;9.55;;;9.50;99.90;;;;;;4942767;29;20169;-42
2022/06/03 01:30:03;;;;;;;13.35;8.93;;;9.40;99.90;;;;;;4943130;29;20411;-44
2022/06/03 01:33:06;;;;;;;8.85;8.02;;;9.40;99.90;;;;;;4915748;29;20062;-43
2022/06/03 01:35:43;;;;;;;9.57;8.45;;;9.40;99.90;;;;;;4940926;29;20066;-42
2022/06/03 01:38:21;;;;;;;12.48;9.50;;;9.40;99.90;;;;;;4943260;29;20497;-43
2022/06/03 01:40:59;;;;;;;13.75;10.15;;;9.30;99.90;;;;;;4927098;29;20058;-43
2022/06/03 01:43:50;;;;;;;11.55;9.80;;;9.30;99.90;;;;;;4943104;29;20058;-42
2022/06/03 01:46:32;;;;;;;10.88;8.98;;;9.20;99.90;;;;;;4927097;29;20062;-42
2022/06/03 01:48:58;;;;;;;13.05;9.52;;;9.20;99.90;;;;;;4942090;29;20151;-42
2022/06/03 01:51:45;;;;;;;11.80;9.68;;;9.20;99.90;;;;;;4998840;28;20509;-42
2022/06/03 01:54:48;;;;;;;11.23;10.00;;;9.10;99.90;;;;;;5024127;28;20455;-43
2022/06/03 01:57:24;;;;;;;10.40;9.38;;;9.10;99.90;;;;;;5024249;28;20089;-42
2022/06/03 02:00:23;;;;;;;11.27;9.45;;;9.00;99.90;;;;;;5021620;28;20053;-43
2022/06/03 02:03:17;;;;;;;11.93;9.63;;;9.00;99.90;;;;;;5014316;28;20059;-43
2022/06/03 02:05:43;;;;;;;;;;;9.00;99.90;;;;;;5015807;28;20502;-43
2022/06/03 02:08:23;;;;;;;12.13;9.43;;;9.00;99.90;;;;;;5014876;28;19925;-42
2022/06/03 02:11:26;;;;;;;10.10;9.00;;;9.00;99.90;;;;;;5011403;28;20062;-47
2022/06/03 02:14:04;;;;;;;10.35;9.20;;;9.00;99.90;;;;;;5014127;28;20046;-47
2022/06/03 02:17:12;;;;;;;11.95;9.38;;;9.00;99.90;;;;;;5015180;28;20057;-43
2022/06/03 02:20:00;;;;;;;13.25;8.98;;;9.00;99.90;;;;;;5010421;28;20606;-43
2022/06/03 02:22:31;;;;;;;10.27;9.27;;;9.00;99.90;;;;;;5015401;28;20077;-42
2022/06/03 02:25:31;;;;;;;12.43;9.73;;;9.00;99.90;;;;;;5016144;28;20171;-49
2022/06/03 02:28:18;;;;;;;12.40;9.80;;;9.00;99.90;;;;;;5014709;28;20576;-42
2022/06/03 02:31:03;;;;;;;13.18;10.27;;;9.00;99.90;;;;;;5016880;28;20072;-43
2022/06/03 02:33:53;;;;;;;13.70;9.90;;;9.00;99.90;;;;;;5030961;28;20049;-42
2022/06/03 02:37:03;;;;;;;14.52;9.63;;;9.00;99.90;;;;;;5031585;28;20594;-42
2022/06/03 02:39:58;;;;;;;12.48;9.98;;;9.00;99.90;;;;;;5010556;28;20045;-43
2022/06/03 02:42:37;;;;;;;17.65;11.43;;;8.90;99.90;;;;;;5032480;28;20504;-44
2022/06/03 02:45:22;;;;;;;13.38;10.23;;;8.90;99.90;;;;;;5018239;28;20353;-42
2022/06/03 02:48:09;;;;;;;15.48;10.13;;;8.80;99.90;;;;;;5016940;28;20049;-43
2022/06/03 02:51:09;;;;;;;10.93;9.43;;;8.80;99.90;;;;;;5031592;28;20052;-43
2022/06/03 02:53:43;;;;;;;14.38;11.00;;;8.70;99.90;;;;;;5032979;28;20057;-42
2022/06/03 02:56:36;;;;;;;13.10;10.70;;;8.70;99.90;;;;;;5029236;28;20064;-43
2022/06/03 02:59:18;;;;;;;11.80;10.52;;;8.70;99.90;;;;;;5032331;28;20396;-44
2022/06/03 03:02:09;;;;;;;10.95;9.57;;;8.70;99.90;;;;;;5013472;28;20053;-42
2022/06/03 03:04:46;;;;;;;14.02;10.63;;;8.70;99.90;;;;;;5002820;28;20053;-42
2022/06/03 03:07:34;;;;;;;14.88;10.75;;;8.70;99.90;;;;;;5031625;28;20094;-43
2022/06/03 03:10:28;;;;;;;18.90;10.55;;;8.70;99.90;;;;;;5024039;28;20491;-43
2022/06/03 03:13:15;;;;;;;13.63;10.68;;;8.70;99.90;;;;;;5034511;28;20214;-42
2022/06/03 03:16:05;;;;;;;14.25;10.35;;;8.70;99.90;;;;;;5016739;28;20072;-43
2022/06/03 03:18:55;;;;;;;13.60;10.85;;;8.70;99.90;;;;;;5025173;28;20057;-44
2022/06/03 03:21:39;;;;;;;13.18;10.57;;;8.80;99.90;;;;;;5031932;28;20090;-43
2022/06/03 03:24:21;;;;;;;14.23;11.60;;;8.90;99.90;;;;;;5033797;28;20132;-45
2022/06/03 03:27:01;;;;;;;11.65;9.40;;;8.90;99.90;;;;;;5034493;28;20141;-44
2022/06/03 03:29:39;;;;;;;15.10;10.88;;;9.00;99.90;;;;;;5012064;28;20060;-43
2022/06/03 03:32:24;;;;;;;14.02;9.55;;;9.10;99.90;;;;;;5026104;28;20068;-42
2022/06/03 03:35:20;;;;;;;11.68;10.23;;;9.10;99.90;;;;;;5029427;28;20061;-43
2022/06/03 03:38:23;;;;;;;13.18;10.18;;;9.20;99.90;;;;;;5030527;28;20079;-42
2022/06/03 03:41:39;;;;;;;14.45;9.75;;;9.20;99.90;;;;;;5028188;28;20053;-42
2022/06/03 03:44:59;;;;;;;12.25;9.95;;;9.20;99.90;;;;;;4974028;28;20160;-43
2022/06/03 03:47:49;;;;;;;11.95;10.68;;;9.30;99.90;;;;;;4923654;29;20047;-44
2022/06/03 03:50:30;;;;;;;12.65;9.93;;;9.30;99.90;;;;;;4922201;29;20058;-42
2022/06/03 03:53:13;;;;;;;11.43;10.05;;;9.30;99.90;;;;;;4939801;29;20525;-43
2022/06/03 03:56:02;;;;;;;16.83;11.52;;;9.50;99.90;;;;;;4940426;28;20099;-43
2022/06/03 03:58:42;;;;;;;14.85;10.43;;;9.90;99.90;;;;;;4923264;29;20280;-43
2022/06/03 04:01:41;;;;;;;10.85;9.50;;;10.80;99.90;;;;;;5003419;28;20057;-43
2022/06/03 04:04:20;;;;;;;12.15;9.05;;;11.90;99.90;;;;;;5016388;28;20512;-44
2022/06/03 04:07:05;;;;;;;12.55;8.98;;;12.90;99.90;;;;;;5015303;28;20088;-44
2022/06/03 04:09:40;;;;;;;8.68;7.65;;;12.90;99.90;;;;;;5027489;28;20508;-43
2022/06/03 04:12:41;;;;;;;9.75;7.78;;;12.50;99.90;;;;;;5013767;28;20049;-42
2022/06/03 04:15:13;;;;;;;11.70;8.52;;;12.10;99.90;;;;;;5029602;28;20038;-42
2022/06/03 04:17:54;;;;;;;13.90;8.40;;;12.10;99.90;;;;;;5035078;28;20150;-43
2022/06/03 04:20:38;;;;;;;9.13;7.80;;;12.70;99.90;;;;;;5009791;28;20045;-43
2022/06/03 04:23:41;;;;;;;9.10;7.82;;;13.70;99.90;;;;;;5012841;28;20644;-42
2022/06/03 04:26:40;;;;;;;9.70;6.80;;;14.80;99.90;;;;;;5032843;28;20049;-43
2022/06/03 04:29:34;;;;;;;8.68;7.55;;;16.10;99.90;;;;;;5031001;28;20366;-44
2022/06/03 04:32:09;;;;;;;8.20;6.90;;;17.40;99.90;;;;;;5026673;28;20079;-43
2022/06/03 04:34:56;;;;;;;9.43;6.03;;;18.40;99.90;;;;;;5007523;28;20060;-43
2022/06/03 04:37:45;;;;;;;7.70;7.00;;;19.10;99.90;;;;;;5025640;28;20053;-44
2022/06/03 04:40:30;;;;;;;7.90;6.40;;;19.70;99.90;;;;;;5013830;28;20056;-44
2022/06/03 04:43:33;;;;;;;8.95;6.65;;;20.20;99.90;;;;;;5016520;28;20791;-47
2022/06/03 04:46:18;;;;;;;;;;;20.40;99.90;;;;;;5034084;28;20837;-44
2022/06/03 04:49:18;;;;;;;8.60;5.75;;;20.90;98.20;;;;;;5019857;28;19967;-45
2022/06/03 04:52:11;;;;;;;6.70;5.78;;;21.10;98.50;;;;;;5036055;28;20063;-44
2022/06/03 04:55:01;;;;;;;6.20;5.60;;;21.70;98.60;;;;;;5019862;28;20377;-43
2022/06/03 04:58:02;;;;;;;8.07;5.85;;;22.20;96.60;;;;;;5029116;28;20045;-47
2022/06/03 05:01:05;;;;;;;6.18;4.95;;;22.60;97.10;;;;;;5031531;28;20411;-43
2022/06/03 05:04:01;;;;;;;7.60;6.07;;;23.30;95.20;;;;;;5031202;28;20211;-44
2022/06/03 05:06:45;;;;;;;6.20;5.55;;;23.30;94.10;;;;;;5013401;28;20484;-44
2022/06/03 05:09:49;;;;;;;5.63;5.00;;;24.00;94.10;;;;;;5033894;28;20087;-45
2022/06/03 05:12:37;;;;;;;6.97;5.53;;;24.60;93.00;;;;;;5033104;28;20057;-44
2022/06/03 05:15:41;;;;;;;6.55;4.97;;;25.00;92.60;;;;;;5031118;28;20432;-45
2022/06/03 05:18:44;;;;;;;5.82;5.03;;;24.90;90.70;;;;;;5031303;28;20052;-45
2022/06/03 05:21:46;;;;;;;6.57;4.72;;;24.60;91.50;;;;;;5035178;28;20106;-44
2022/06/03 05:24:39;;;;;;;5.43;4.90;;;24.70;90.30;;;;;;5012982;28;20468;-44
2022/06/03 05:27:28;;;;;;;6.70;5.05;;;24.80;90.20;;;;;;5026695;28;20049;-45
2022/06/03 05:30:21;;;;;;;5.53;5.03;;;24.60;90.80;;;;;;5033994;28;20171;-43
2022/06/03 05:33:24;;;;;;;5.18;4.68;;;24.70;89.70;;;;;;5032598;28;20156;-45
2022/06/03 05:35:59;;;;;;;;;;;25.30;87.60;;;;;;5017134;28;20499;-44
2022/06/03 05:39:04;;;;;;;6.80;5.50;;;25.20;88.10;;;;;;5016370;28;20007;-43
2022/06/03 05:44:57;;;;;;;6.22;4.43;;;25.30;85.50;;;;;;5029017;28;20171;-44
2022/06/03 05:47:35;;;;;;;5.20;4.72;;;25.60;86.40;;;;;;5017125;28;20471;-44
2022/06/03 05:50:28;;;;;;;5.72;4.40;;;25.90;85.40;;;;;;5031365;28;20114;-44
2022/06/03 05:53:12;;;;;;;;;;;26.10;85.30;;;;;;5033718;28;20061;-46
2022/06/03 05:56:02;;;;;;;4.40;4.00;;;26.50;83.30;;;;;;5034960;28;19929;-46
2022/06/03 05:59:09;;;;;;;6.35;4.15;;;26.30;83.00;;;;;;5033536;28;20049;-50
2022/06/03 06:02:10;;;;;;;4.90;3.92;;;26.30;81.70;;;;;;4941805;28;20050;-44
2022/06/03 06:05:09;;;;;;;4.72;3.58;;;26.40;80.60;;;;;;4942439;28;20526;-44
2022/06/03 06:08:02;;;;;;;4.78;3.50;;;26.40;80.30;;;;;;4945506;28;20055;-44
2022/06/03 06:10:46;;;;;;;5.43;4.20;;;26.10;78.70;;;;;;4945298;28;20134;-46
2022/06/03 06:13:50;;;;;;;4.03;3.50;;;25.90;79.20;;;;;;4944115;28;20533;-44
2022/06/03 06:16:41;;;;;;;5.10;3.40;;;26.10;78.60;;;;;;4944844;28;20054;-44
2022/06/03 06:19:36;;;;;;;4.00;3.60;;;26.20;78.30;;;;;;4884857;29;20061;-44
2022/06/03 06:22:19;;;;;;;4.20;3.38;;;26.60;79.80;;;;;;4878123;29;20065;-45
2022/06/03 06:24:56;;;;;;;4.68;3.28;;;26.70;76.50;;;;;;4868906;29;20132;-48
2022/06/03 06:27:57;;;;;;;6.35;3.53;;;26.50;74.80;;;;;;4885006;29;20092;-45
2022/06/03 06:30:49;;;;;;;4.53;3.40;;;26.60;75.20;;;;;;4889549;29;20590;-44
2022/06/03 06:33:57;;;;;;;6.00;3.30;;;26.10;73.40;;;;;;4883967;29;20143;-45
2022/06/03 06:37:19;;;;;;;5.70;3.35;;;26.00;74.80;;;;;;4847622;29;20057;-44
2022/06/03 06:40:21;;;;;;;6.10;3.22;;;25.90;74.80;;;;;;4884111;29;20052;-44
2022/06/03 06:43:22;;;;;;;3.80;3.08;;;25.60;74.40;;;;;;4862485;29;20148;-46
2022/06/03 06:45:53;;;;;;;4.63;3.30;;;25.90;75.80;;;;;;4864023;29;20068;-45
2022/06/03 06:48:40;;;;;;;5.63;3.20;;;25.80;75.20;;;;;;4865161;29;20057;-45
2022/06/03 06:51:30;;;;;;;4.38;3.30;;;25.70;75.30;;;;;;4865760;29;20105;-45
2022/06/03 06:54:10;;;;;;;4.13;3.60;;;25.70;74.60;;;;;;4872194;29;20075;-46
2022/06/03 06:56:59;;;;;;;5.97;3.13;;;25.90;75.30;;;;;;4872521;29;20638;-46
2022/06/03 06:59:45;;;;;;;5.50;2.90;;;26.10;75.70;;;;;;4865361;29;20059;-44
2022/06/03 07:02:23;;;;;;;3.38;2.58;;;26.00;74.60;;;;;;4883829;29;20564;-45
2022/06/03 07:04:58;;;;;;;3.30;2.53;;;26.30;75.00;;;;;;4889436;29;20068;-44
2022/06/03 07:07:24;;;;;;;3.30;2.53;;;26.70;75.60;;;;;;4896719;29;20064;-45
2022/06/03 07:09:56;;;;;;;3.42;2.63;;;26.50;75.30;;;;;;4896395;29;20067;-44
2022/06/03 07:12:55;;;;;;;4.50;2.78;;;26.60;74.20;;;;;;4907578;29;20520;-44
2022/06/03 07:15:25;;;;;;;2.53;2.33;;;26.70;73.80;;;;;;4865495;29;20299;-45
2022/06/03 07:21:23;;;;;;;5.65;2.22;;;25.80;73.70;;;;;;4940849;29;20191;-44
2022/06/03 07:23:54;;;;;;;8.20;3.17;;;24.90;74.70;;;;;;4940573;29;20509;-45
2022/06/03 07:26:34;;;;;;;4.50;2.58;;;23.80;75.90;;;;;;4940361;29;20063;-47
2022/06/03 07:29:16;;;;;;;3.42;2.53;;;23.00;77.30;;;;;;4940555;29;20055;-44
2022/06/03 07:31:55;;;;;;;4.40;2.90;;;22.60;78.90;;;;;;4918069;29;20064;-44
2022/06/03 07:34:45;;;;;;;4.25;2.28;;;22.40;80.10;;;;;;4934769;29;20062;-45
2022/06/03 07:37:37;;;;;;;4.18;2.75;;;22.00;81.20;;;;;;4924917;29;20055;-44
2022/06/03 07:40:26;;;;;;;5.00;2.38;;;21.70;80.10;;;;;;4911354;29;20059;-45
2022/06/03 07:43:14;;;;;;;4.82;3.00;;;21.50;83.80;;;;;;4939325;29;20281;-45
2022/06/03 07:45:55;;;;;;;4.10;2.50;;;21.40;83.40;;;;;;4934809;29;20067;-44
2022/06/03 07:48:24;;;;;;;4.85;2.83;;;21.40;82.70;;;;;;4941069;29;20495;-46
2022/06/03 07:51:04;;;;;;;3.67;2.80;;;21.20;83.60;;;;;;4923741;29;20051;-43
2022/06/03 07:53:51;;;;;;;5.85;3.03;;;21.20;84.90;;;;;;5020801;28;20064;-44
2022/06/03 07:56:25;;;;;;;4.85;2.70;;;21.00;85.80;;;;;;5039836;28;20052;-43
2022/06/03 07:58:57;;;;;;;5.05;2.72;;;21.10;84.60;;;;;;5021213;28;20072;-44
2022/06/03 08:01:25;;;;;;;4.40;2.72;;;20.90;84.00;;;;;;5039733;28;20540;-44
2022/06/03 08:03:58;;;;;;;4.97;2.88;;;20.70;85.10;;;;;;5022843;28;20487;-45
2022/06/03 08:12:25;;;;;;;7.45;4.10;;;20.50;88.30;;;;;;5040146;28;20087;-43
2022/06/03 08:15:22;;;;;;;3.50;2.30;;;20.40;87.00;;;;;;5033784;28;20460;-47
2022/06/03 08:17:50;;;;;;;5.07;2.53;;;20.40;88.40;;;;;;4940177;29;20564;-47
2022/06/03 08:20:22;;;;;;;4.50;2.95;;;20.30;87.30;;;;;;4940592;29;20042;-44
2022/06/03 08:22:54;;;;;;;5.80;2.90;;;20.10;88.40;;;;;;4940358;29;20063;-47
2022/06/03 08:25:26;;;;;;;5.95;2.55;;;20.20;89.00;;;;;;4940485;29;20140;-44
2022/06/03 08:27:55;;;;;;;3.88;3.22;;;20.20;89.80;;;;;;4924686;29;20067;-43
2022/06/03 08:30:28;;;;;;;7.07;2.88;;;20.30;88.70;;;;;;4923478;29;20472;-45
2022/06/03 08:33:25;;;;;;;5.60;3.03;;;20.30;88.00;;;;;;4941687;28;20581;-44
2022/06/03 08:35:51;;;;;;;4.40;2.63;;;20.30;89.00;;;;;;4927078;29;20114;-47
2022/06/03 08:38:24;;;;;;;3.72;2.50;;;20.40;88.90;;;;;;4924920;29;20402;-49
2022/06/03 08:41:04;;;;;;;4.75;2.45;;;20.40;89.70;;;;;;4940135;29;20063;-45
2022/06/03 08:43:41;;;;;;;4.00;2.97;;;20.50;90.20;;;;;;4938933;29;20059;-43
2022/06/03 08:46:28;;;;;;;2.97;2.55;;;20.70;90.10;;;;;;4939817;28;20067;-43
2022/06/03 08:49:02;;;;;;;4.35;2.95;;;20.80;90.10;;;;;;4934860;28;20067;-44
2022/06/03 08:51:37;;;;;;;4.68;2.85;;;20.80;89.90;;;;;;4915951;29;20088;-43
2022/06/03 08:54:28;;;;;;;3.00;2.72;;;20.80;90.10;;;;;;4975249;28;20057;-44
2022/06/03 08:57:05;;;;;;;4.22;3.33;;;20.80;88.90;;;;;;5040992;28;20057;-44
2022/06/03 08:59:41;;;;;;;5.60;2.97;;;20.60;89.30;;;;;;5034147;28;20084;-45
2022/06/03 09:02:37;;;;;;;4.90;3.40;;;20.60;89.40;;;;;;5034915;28;20061;-45
2022/06/03 09:05:10;;;;;;;3.85;3.00;;;20.60;90.30;;;;;;5037340;28;20077;-44
2022/06/03 09:07:48;;;;;;;2.72;2.47;;;20.80;90.40;;;;;;5037548;28;20530;-44
2022/06/03 09:10:25;;;;;;;3.22;2.53;;;20.80;90.60;;;;;;5004288;28;20053;-45
2022/06/03 09:13:09;;;;;;;8.13;3.30;;;21.00;91.30;;;;;;5035625;28;20045;-44
2022/06/03 09:15:41;;;;;;;3.40;2.80;;;21.10;90.30;;;;;;5037526;28;20041;-44
2022/06/03 09:18:14;;;;;;;4.57;2.72;;;21.30;90.70;;;;;;5044054;28;20110;-44
2022/06/03 09:20:54;;;;;;;6.07;3.53;;;21.40;90.50;;;;;;5044065;28;20451;-44
2022/06/03 09:23:21;;;;;;;5.18;3.30;;;21.40;90.30;;;;;;5043959;28;20040;-44
2022/06/03 09:25:51;;;;;;;4.30;3.20;;;21.40;91.10;;;;;;5043092;28;20053;-45
2022/06/03 09:28:25;;;;;;;3.90;3.13;;;21.50;89.90;;;;;;5043712;28;20053;-44
2022/06/03 09:30:52;;;;;;;4.82;3.05;;;21.40;87.00;;;;;;5043874;28;20396;-44
2022/06/03 09:33:20;;;;;;;4.38;3.38;;;21.40;90.00;;;;;;5022507;28;20057;-45
2022/06/03 09:35:50;;;;;;;3.90;3.47;;;21.50;90.10;;;;;;5041953;28;20045;-44
2022/06/03 09:38:20;;;;;;;5.13;2.90;;;21.40;88.40;;;;;;5023083;28;20083;-46
2022/06/03 09:40:48;;;;;;;4.18;2.78;;;21.40;88.10;;;;;;5043748;28;20051;-43
2022/06/03 09:43:22;;;;;;;5.53;3.28;;;21.40;90.00;;;;;;5043195;28;20139;-45
2022/06/03 09:45:53;;;;;;;5.13;2.97;;;21.50;88.60;;;;;;5043933;28;20049;-48
2022/06/03 09:48:25;;;;;;;5.20;3.25;;;21.40;88.70;;;;;;5043302;28;20464;-44
2022/06/03 09:50:52;;;;;;;3.17;2.72;;;21.40;88.20;;;;;;5043495;28;20538;-45
2022/06/03 09:53:20;;;;;;;4.50;2.92;;;21.40;88.70;;;;;;5044633;28;20472;-44
2022/06/03 09:55:55;;;;;;;3.92;2.80;;;21.30;87.80;;;;;;5045134;28;20120;-43
2022/06/03 09:58:27;;;;;;;3.20;2.55;;;21.30;88.20;;;;;;5028040;28;20049;-45
2022/06/03 10:00:56;;;;;;;4.68;2.90;;;21.30;88.40;;;;;;5023812;28;20077;-44
2022/06/03 10:03:24;;;;;;;4.18;3.03;;;21.20;85.80;;;;;;5040025;28;20106;-45
2022/06/03 10:05:55;;;;;;;4.35;3.15;;;21.30;87.50;;;;;;5042959;28;20056;-45
2022/06/03 10:14:04;;;;;;;6.28;3.13;;;21.20;88.70;;;;;;4941201;29;20051;-47
2022/06/03 10:16:31;;;;;;;4.53;2.70;;;21.20;89.00;;;;;;4926392;29;20085;-44
2022/06/03 10:18:57;;;;;;;4.88;2.65;;;21.30;88.10;;;;;;4940628;28;20410;-45
2022/06/03 10:21:23;;;;;;;5.75;2.83;;;21.30;87.70;;;;;;4941627;29;20046;-45
2022/06/03 10:23:51;;;;;;;5.93;3.67;;;21.40;90.30;;;;;;4923183;29;20191;-44
2022/06/03 10:27:01;;;;;;;4.20;3.00;;;21.40;87.80;;;;;;4940565;29;20070;-44
2022/06/03 10:29:29;;;;;;;3.97;3.33;;;21.50;89.80;;;;;;4934801;28;20051;-46
2022/06/03 10:32:00;;;;;;;3.88;2.80;;;21.40;87.20;;;;;;4939015;29;20499;-44
2022/06/03 10:34:33;;;;;;;4.15;2.80;;;21.30;87.80;;;;;;4921545;29;20044;-45
2022/06/03 10:36:59;;;;;;;5.38;3.20;;;21.30;90.20;;;;;;4923944;29;20153;-44
2022/06/03 10:39:30;;;;;;;3.30;2.90;;;21.30;88.20;;;;;;4940781;29;20055;-45
2022/06/03 10:41:58;;;;;;;3.42;3.13;;;21.20;88.70;;;;;;4910442;29;20065;-46
2022/06/03 10:44:28;;;;;;;4.30;2.88;;;21.20;87.60;;;;;;4939591;29;20063;-44
2022/06/03 10:47:08;;;;;;;3.72;2.80;;;21.30;89.10;;;;;;4937361;28;20059;-45
2022/06/03 10:49:48;;;;;;;4.45;2.97;;;21.40;88.80;;;;;;5012663;28;20492;-44
2022/06/03 11:01:27;;;;;;;4.15;3.08;;;21.30;86.90;;;;;;5022883;28;20049;-44
2022/06/03 11:03:56;;;;;;;4.60;2.90;;;21.20;87.60;;;;;;5014801;28;20055;-44
2022/06/03 11:06:25;;;;;;;4.18;2.83;;;21.30;88.50;;;;;;5033852;28;20562;-44
2022/06/03 11:08:53;;;;;;;3.63;2.78;;;21.50;90.10;;;;;;5041735;28;20076;-46
2022/06/03 11:11:42;;;;;;;3.83;2.53;;;21.50;86.50;;;;;;5041104;28;20602;-45
2022/06/03 11:14:41;;;;;;;5.68;2.72;;;21.50;88.70;;;;;;5023206;28;20130;-44
2022/06/03 11:17:17;;;;;;;5.35;2.80;;;21.50;88.90;;;;;;5041754;28;20053;-46
2022/06/03 11:19:56;;;;;;;3.97;2.78;;;21.70;87.70;;;;;;5041150;28;20052;-45
2022/06/03 11:22:51;;;;;;;5.00;2.78;;;21.60;87.40;;;;;;5025778;28;20698;-46
2022/06/03 11:25:22;;;;;;;4.47;3.20;;;21.60;89.40;;;;;;4960389;28;20124;-45
2022/06/03 11:28:07;;;;;;;6.05;2.50;;;21.80;88.40;;;;;;4961607;28;20209;-50
2022/06/03 11:30:51;;;;;;;3.80;2.85;;;21.80;90.30;;;;;;4944628;28;20908;-48
2022/06/03 11:33:36;;;;;;;4.47;3.03;;;22.10;88.20;;;;;;4959602;28;20078;-47
2022/06/03 11:36:14;;;;;;;4.93;2.75;;;22.00;86.70;;;;;;4942632;28;20403;-45
2022/06/03 11:39:26;;;;;;;3.65;2.38;;;21.90;87.70;;;;;;4960497;28;20636;-45
2022/06/03 11:42:03;;;;;;;4.43;2.80;;;22.00;88.20;;;;;;4937605;28;20072;-45
2022/06/03 11:44:45;;;;;;;3.88;2.50;;;22.20;89.80;;;;;;4943604;28;20058;-46
2022/06/03 11:47:55;;;;;;;3.28;2.70;;;22.20;84.80;;;;;;4952397;28;20154;-44
2022/06/03 11:50:25;;;;;;;4.07;2.65;;;22.00;84.70;;;;;;4886606;29;20943;-44
2022/06/03 11:52:54;;;;;;;2.40;2.20;;;21.80;86.90;;;;;;4886161;29;20059;-45
2022/06/03 11:55:22;;;;;;;4.03;2.50;;;21.70;86.10;;;;;;4887027;29;20106;-44
2022/06/03 11:57:57;;;;;;;3.75;2.88;;;21.60;85.80;;;;;;4902523;29;20059;-44
2022/06/03 12:00:24;;;;;;;3.22;2.33;;;21.60;86.80;;;;;;4901558;29;20424;-46
2022/06/03 12:03:19;;;;;;;2.90;2.50;;;21.70;86.90;;;;;;4937319;29;20189;-45
2022/06/03 12:05:50;;;;;;;4.43;2.60;;;21.80;88.30;;;;;;4924037;29;20063;-45
2022/06/03 12:08:41;;;;;;;5.72;3.08;;;22.00;87.30;;;;;;4923063;29;20070;-43
2022/06/03 12:14:40;;;;;;;5.57;2.60;;;22.30;88.90;;;;;;4937884;29;20047;-44
2022/06/03 12:17:06;;;;;;;3.63;2.30;;;22.20;85.80;;;;;;4940334;29;20418;-45
2022/06/03 12:19:52;;;;;;;5.10;2.28;;;22.20;85.10;;;;;;4939782;29;20051;-43
2022/06/03 12:22:20;;;;;;;2.95;2.38;;;22.20;87.30;;;;;;5029243;28;20159;-43
2022/06/03 12:24:49;;;;;;;4.70;3.10;;;22.10;85.50;;;;;;5039115;28;20044;-45
2022/06/03 12:27:31;;;;;;;5.90;2.65;;;21.90;86.50;;;;;;5022091;28;20057;-44
2022/06/03 12:30:09;;;;;;;7.18;2.75;;;21.90;87.20;;;;;;5039986;28;20053;-44
2022/06/03 12:32:37;;;;;;;3.83;2.53;;;22.00;89.30;;;;;;5040505;28;20056;-46
2022/06/03 12:35:40;;;;;;;6.28;2.33;;;22.10;88.80;;;;;;5018203;28;20049;-45
2022/06/03 12:38:21;;;;;;;4.60;2.20;;;22.00;87.60;;;;;;5040394;28;20476;-44
2022/06/03 12:40:48;;;;;;;3.83;2.10;;;21.70;89.60;;;;;;5026971;28;20458;-46
2022/06/03 12:43:29;;;;;;;3.65;2.30;;;21.80;92.00;;;;;;5039719;28;20045;-46
2022/06/03 12:46:07;;;;;;;2.75;2.40;;;21.90;88.20;;;;;;5029158;28;20045;-44
2022/06/03 12:48:45;;;;;;;6.53;3.38;;;21.80;86.90;;;;;;5044499;28;20099;-48
2022/06/03 12:51:31;;;;;;;3.13;2.38;;;21.90;88.50;;;;;;5027754;28;20061;-45
2022/06/03 12:54:17;;;;;;;3.05;2.03;;;21.90;87.30;;;;;;5016775;28;20091;-47
2022/06/03 12:56:55;;;;;;;2.92;2.35;;;21.90;86.00;;;;;;5041545;28;20062;-45
2022/06/03 12:59:41;;;;;;;3.45;3.15;;;21.90;85.10;;;;;;5036406;28;20419;-46
2022/06/03 13:02:21;;;;;;;4.53;2.70;;;22.00;84.90;;;;;;5044464;28;20084;-46
2022/06/03 13:05:06;;;;;;;4.38;2.47;;;21.80;87.20;;;;;;5023882;28;20665;-45
2022/06/03 13:07:54;;;;;;;3.38;2.47;;;21.80;88.20;;;;;;5026153;28;20056;-45
2022/06/03 13:10:24;;;;;;;3.67;2.30;;;21.80;86.10;;;;;;5025338;28;20120;-45
2022/06/03 13:12:52;;;;;;;4.60;2.30;;;21.80;86.50;;;;;;5025464;28;20057;-44
2022/06/03 13:15:20;;;;;;;4.18;2.20;;;21.70;87.20;;;;;;5024897;28;20048;-43
2022/06/03 13:18:12;;;;;;;3.85;2.40;;;21.70;90.90;;;;;;5040785;28;20499;-44
2022/06/03 13:20:40;;;;;;;5.40;2.17;;;21.90;86.40;;;;;;5032147;28;20056;-43
2022/06/03 13:23:29;;;;;;;3.08;2.50;;;21.80;88.10;;;;;;5038989;28;20055;-44
2022/06/03 13:26:16;;;;;;;4.53;2.33;;;21.90;88.50;;;;;;5041458;28;20080;-45
2022/06/03 13:28:43;;;;;;;3.55;2.50;;;21.90;86.30;;;;;;5035202;28;20045;-45
2022/06/03 13:31:13;;;;;;;3.13;1.80;;;21.80;87.20;;;;;;5038030;28;20044;-43
2022/06/03 13:34:08;;;;;;;3.88;2.20;;;21.90;88.40;;;;;;5038917;28;20049;-43
2022/06/03 13:36:45;;;;;;;3.03;1.95;;;21.90;86.20;;;;;;5040750;28;20471;-43
2022/06/03 13:39:24;;;;;;;2.75;2.10;;;21.90;86.00;;;;;;5038567;28;20049;-44
2022/06/03 13:45:01;;;;;;;2.72;2.45;;;21.90;88.50;;;;;;5040242;28;20407;-43
2022/06/03 13:47:46;;;;;;;3.00;1.90;;;21.90;86.80;;;;;;5043136;28;21899;-45
2022/06/03 13:50:14;;;;;;;3.58;2.10;;;21.90;88.60;;;;;;5041355;28;20049;-44
2022/06/03 13:52:53;;;;;;;3.75;2.30;;;21.80;86.30;;;;;;5039539;28;20049;-43
2022/06/03 13:55:37;;;;;;;3.53;2.38;;;21.80;88.00;;;;;;5043782;28;20080;-44
2022/06/03 13:58:25;;;;;;;2.65;2.30;;;21.90;90.30;;;;;;5041924;28;20049;-43
2022/06/03 14:00:54;;;;;;;8.68;1.98;;;22.10;86.70;;;;;;5042321;28;20056;-44
2022/06/03 14:04:09;;;;;;;3.42;2.15;;;22.10;90.60;;;;;;5042090;28;20089;-45
2022/06/03 14:06:54;;;;;;;3.95;2.25;;;22.10;90.00;;;;;;4887877;29;20510;-44
2022/06/03 14:09:27;;;;;;;4.63;2.40;;;22.10;89.30;;;;;;4902166;29;20101;-45
2022/06/03 14:12:06;;;;;;;5.80;2.90;;;22.10;89.80;;;;;;4903914;29;20174;-47
2022/06/03 14:14:46;;;;;;;5.60;2.40;;;22.20;91.80;;;;;;4889365;29;20088;-45
2022/06/03 14:17:28;;;;;;;6.47;2.97;;;22.10;91.90;;;;;;4906958;29;20228;-47
2022/06/03 14:20:06;;;;;;;8.05;2.35;;;22.10;92.20;;;;;;4906370;29;20146;-45
2022/06/03 14:22:35;;;;;;;6.70;2.63;;;21.90;92.90;;;;;;4904707;29;20068;-48
2022/06/03 14:25:25;;;;;;;5.00;2.42;;;21.80;92.80;;;;;;4904078;29;20678;-45
2022/06/03 14:27:55;;;;;;;5.47;2.20;;;21.60;92.70;;;;;;4887879;29;20893;-44
2022/06/03 14:30:34;;;;;;;7.63;2.65;;;21.50;93.00;;;;;;4903705;29;20130;-45
2022/06/03 14:33:00;;;;;;;5.55;2.40;;;21.50;93.70;;;;;;4884169;29;20138;-45
2022/06/03 14:35:34;;;;;;;4.28;2.15;;;21.40;93.20;;;;;;4904206;29;20059;-45
2022/06/03 14:38:11;;;;;;;3.92;1.90;;;21.30;92.80;;;;;;4900950;29;20582;-44
2022/06/03 14:40:41;;;;;;;3.40;2.45;;;21.10;92.60;;;;;;4897256;29;20625;-43
2022/06/03 14:43:11;;;;;;;9.50;2.35;;;21.20;93.10;;;;;;4941025;28;20057;-45